Time;durP1;ratioP1;P1;durP2;ratioP2;P2;SDS_P1;SDS_P2;PMS_P1;PMS_P2;Temp;Humidity;BMP_temperature;BMP_pressure;BME280_temperature;BME280_humidity;BME280_pressure;Samples;Min_cycle;Max_cycle;Signal;HPM_P1;HPM_P2
2022/05/01 00:01:13;;;;;;;23.58;21.33;;;10.30;99.90;;;11.20;85.15;98369.84;5245464;28;20314;-56
2022/05/01 00:03:47;;;;;;;25.05;22.65;;;10.30;99.90;;;11.18;85.19;98368.00;5237902;28;20199;-52
2022/05/01 00:06:20;;;;;;;25.88;23.25;;;10.30;99.90;;;11.12;85.78;98360.81;5243604;28;20297;-56
2022/05/01 00:08:53;;;;;;;25.30;22.70;;;10.20;99.90;;;11.08;85.72;98371.66;5247396;28;20250;-55
2022/05/01 00:11:26;;;;;;;24.15;21.65;;;10.20;99.90;;;11.13;86.04;98369.38;5247308;28;20250;-58
2022/05/01 00:14:01;;;;;;;26.40;23.60;;;10.20;99.90;;;11.15;85.85;98371.22;5239417;28;20239;-55
2022/05/01 00:16:34;;;;;;;27.60;24.63;;;10.30;99.90;;;11.09;85.00;98370.84;5247382;28;20243;-52
2022/05/01 00:19:09;;;;;;;24.55;22.05;;;10.20;99.90;;;11.07;86.05;98362.19;5242726;28;20231;-57
2022/05/01 00:21:42;;;;;;;29.08;25.98;;;10.10;99.90;;;11.02;85.96;98361.03;5246438;28;20242;-51
2022/05/01 00:24:15;;;;;;;33.20;27.80;;;10.20;99.90;;;10.99;86.70;98358.28;5248186;28;20659;-56
2022/05/01 00:26:48;;;;;;;28.15;25.15;;;10.10;99.90;;;10.91;86.75;98364.59;5239423;28;20316;-57
2022/05/01 00:29:24;;;;;;;27.45;24.65;;;10.00;99.90;;;10.89;86.99;98361.03;5247414;28;20196;-57
2022/05/01 00:31:57;;;;;;;29.73;26.63;;;10.00;99.90;;;10.90;86.72;98362.78;5244055;28;20201;-56
2022/05/01 00:37:21;;;;;;;28.33;25.45;;;10.10;99.90;;;10.93;87.33;98368.09;5236986;28;20225;-56
2022/05/01 00:39:54;;;;;;;26.77;24.08;;;10.10;99.90;;;11.01;86.49;98356.69;5245951;28;20705;-57
2022/05/01 00:42:27;;;;;;;29.05;26.15;;;10.10;99.90;;;10.97;87.87;98362.41;5248642;28;20300;-57
2022/05/01 00:45:01;;;;;;;26.55;23.85;;;10.20;99.90;;;10.99;87.55;98358.28;5247933;28;20286;-57
2022/05/01 00:47:34;;;;;;;27.55;24.73;;;10.10;99.90;;;11.06;86.28;98365.53;5247427;28;20257;-57
2022/05/01 00:50:09;;;;;;;27.83;25.00;;;10.20;99.90;;;11.02;86.22;98361.03;5246275;28;20296;-55
2022/05/01 00:52:42;;;;;;;28.58;25.48;;;10.20;99.90;;;10.94;87.46;98359.66;5247800;28;20283;-57
2022/05/01 00:55:16;;;;;;;25.98;23.27;;;10.10;99.90;;;10.95;86.84;98356.31;5247729;28;20291;-56
2022/05/01 00:57:49;;;;;;;26.90;24.10;;;10.10;99.90;;;11.03;87.09;98356.00;5250228;28;20243;-56
2022/05/01 01:00:24;;;;;;;28.10;25.23;;;10.20;99.90;;;10.99;87.42;98353.16;5247118;28;20629;-56
2022/05/01 01:02:57;;;;;;;28.92;26.02;;;10.10;99.90;;;11.02;86.99;98355.91;5248432;28;20203;-57
2022/05/01 01:05:31;;;;;;;28.55;25.67;;;10.10;99.90;;;11.05;86.91;98353.56;5245780;28;20227;-55
2022/05/01 01:08:05;;;;;;;27.98;25.08;;;10.20;99.90;;;11.05;86.34;98349.31;5244310;28;20201;-57
2022/05/01 01:10:38;;;;;;;28.70;25.77;;;10.20;99.90;;;11.11;86.97;98342.81;5246156;28;20289;-55
2022/05/01 01:13:12;;;;;;;29.40;26.27;;;10.20;99.90;;;11.19;86.55;98347.63;5244270;28;20602;-56
2022/05/01 01:15:46;;;;;;;27.55;24.65;;;10.20;99.90;;;11.24;85.76;98345.34;5247917;28;20256;-53
2022/05/01 01:18:19;;;;;;;27.73;24.95;;;10.30;99.90;;;11.20;86.26;98344.28;5243992;28;20242;-55
2022/05/01 01:20:54;;;;;;;28.20;25.17;;;10.20;99.90;;;11.08;85.66;98350.31;5244043;28;20244;-56
2022/05/01 01:23:30;;;;;;;29.08;25.98;;;10.20;99.90;;;10.98;86.86;98347.16;5242042;28;20602;-57
2022/05/01 01:26:05;;;;;;;29.02;25.95;;;10.10;99.90;;;11.08;86.52;98348.63;5248534;28;20247;-57
2022/05/01 01:28:39;;;;;;;27.75;24.95;;;10.10;99.90;;;11.11;86.71;98348.81;5244429;28;20275;-56
2022/05/01 01:34:06;;;;;;;28.38;25.50;;;10.20;99.90;;;11.05;86.68;98340.75;5244535;28;20628;-54
2022/05/01 01:36:42;;;;;;;29.23;26.23;;;10.10;99.90;;;11.02;87.91;98343.13;5247828;28;20320;-57
2022/05/01 01:39:18;;;;;;;28.92;25.98;;;10.20;99.90;;;11.04;87.26;98338.97;5240724;28;20243;-57
2022/05/01 01:41:55;;;;;;;28.20;25.27;;;10.20;99.90;;;11.06;87.11;98342.53;5252217;28;20214;-53
2022/05/01 01:44:29;;;;;;;26.38;23.77;;;10.20;99.90;;;11.06;86.61;98337.41;5245082;28;20201;-57
2022/05/01 01:47:03;;;;;;;26.00;23.40;;;10.10;99.90;;;11.09;86.56;98340.16;5248369;28;20288;-56
2022/05/01 01:49:36;;;;;;;27.10;24.30;;;10.20;99.90;;;11.04;87.14;98342.44;5243887;28;20638;-57
2022/05/01 01:52:11;;;;;;;29.23;25.40;;;10.10;99.90;;;10.79;87.73;98349.34;5244516;28;20279;-57
2022/05/01 01:54:44;;;;;;;27.08;24.30;;;10.00;99.90;;;10.80;86.50;98346.00;5246912;28;20243;-57
2022/05/01 01:57:17;;;;;;;29.58;26.70;;;10.00;99.90;;;10.71;87.31;98345.41;5251997;28;20686;-54
2022/05/01 01:59:50;;;;;;;30.17;26.92;;;9.90;99.90;;;10.73;87.80;98342.16;5247852;28;20285;-52
2022/05/01 02:02:23;;;;;;;29.20;26.15;;;9.90;99.90;;;10.68;88.58;98340.97;5245612;28;20311;-57
2022/05/01 02:04:56;;;;;;;27.38;24.65;;;9.90;99.90;;;10.75;88.22;98335.47;5247443;28;20594;-53
2022/05/01 02:07:33;;;;;;;27.23;24.42;;;9.90;99.90;;;10.87;87.26;98332.78;5245289;28;20248;-52
2022/05/01 02:10:08;;;;;;;27.98;25.17;;;10.00;99.90;;;10.92;88.96;98327.97;5245768;28;20231;-53
2022/05/01 02:12:41;;;;;;;26.95;24.33;;;10.10;99.90;;;10.95;87.74;98315.38;5246645;28;20282;-53
2022/05/01 02:15:15;;;;;;;28.13;25.20;;;10.10;99.90;;;10.90;87.44;98319.31;5242697;28;20285;-55
2022/05/01 02:17:49;;;;;;;29.05;26.05;;;10.10;99.90;;;10.97;88.22;98318.94;5248988;28;20259;-55
2022/05/01 02:20:22;;;;;;;28.75;25.55;;;10.10;99.90;;;10.99;86.81;98315.69;5243893;28;20252;-56
2022/05/01 02:22:57;;;;;;;26.90;24.13;;;10.10;99.90;;;11.03;86.18;98309.06;5245607;28;20229;-56
2022/05/01 02:25:30;;;;;;;27.58;24.80;;;10.10;99.90;;;11.06;86.40;98311.81;5241494;28;20286;-53
2022/05/01 02:28:04;;;;;;;26.95;24.05;;;10.10;99.90;;;11.02;86.91;98308.19;5247711;28;20195;-55
2022/05/01 02:30:37;;;;;;;27.38;24.48;;;10.10;99.90;;;10.92;87.37;98308.41;5245782;28;22091;-56
2022/05/01 02:33:11;;;;;;;27.23;24.33;;;10.10;99.90;;;10.91;87.22;98305.75;5246721;28;20641;-55
2022/05/01 02:35:44;;;;;;;27.75;24.98;;;10.00;99.90;;;10.91;86.65;98300.66;5243702;28;20212;-56
2022/05/01 02:38:19;;;;;;;29.23;26.17;;;10.10;99.90;;;10.86;87.41;98302.03;5244057;28;20228;-57
2022/05/01 02:40:52;;;;;;;27.65;24.85;;;10.00;99.90;;;10.79;88.35;98301.66;5244720;28;20243;-57
2022/05/01 02:43:27;;;;;;;28.55;25.33;;;10.00;99.90;;;10.75;87.87;98297.09;5248949;28;20295;-57
2022/05/01 02:46:00;;;;;;;28.77;25.77;;;10.00;99.90;;;10.80;87.29;98295.72;5246181;28;20269;-55
2022/05/01 02:48:33;;;;;;;27.40;24.50;;;10.00;99.90;;;10.83;87.32;98300.16;5245347;28;20196;-57
2022/05/01 02:51:06;;;;;;;27.10;24.25;;;10.00;99.90;;;10.68;88.43;98294.97;5243945;28;20224;-57
2022/05/01 02:53:41;;;;;;;28.17;25.33;;;9.90;99.90;;;10.52;88.46;98297.31;5243789;28;20291;-55
2022/05/01 02:56:14;;;;;;;27.05;24.17;;;9.80;99.90;;;10.59;88.00;98300.38;5244468;28;20250;-52
2022/05/01 02:58:47;;;;;;;28.55;25.65;;;9.80;99.90;;;10.63;89.39;98296.34;5247858;28;20208;-57
2022/05/01 03:01:20;;;;;;;26.75;23.90;;;9.80;99.90;;;10.75;87.92;98301.34;5241762;28;20247;-56
2022/05/01 03:03:54;;;;;;;27.58;24.33;;;9.80;99.90;;;10.83;88.14;98295.91;5244155;28;20201;-54
2022/05/01 03:06:27;;;;;;;26.73;23.98;;;9.90;99.90;;;10.90;87.34;98296.31;5244881;28;20718;-56
2022/05/01 03:09:01;;;;;;;29.60;26.63;;;10.00;99.90;;;10.86;87.69;98299.47;5242333;28;20231;-56
2022/05/01 03:11:35;;;;;;;27.25;24.45;;;10.00;99.90;;;10.85;88.75;98297.72;5246979;28;20228;-56
2022/05/01 03:14:09;;;;;;;26.55;23.83;;;10.00;99.90;;;10.76;88.30;98298.91;5244221;28;20630;-56
2022/05/01 03:16:42;;;;;;;28.48;25.35;;;9.90;99.90;;;10.86;87.88;98294.34;5243875;28;20223;-53
2022/05/01 03:22:13;;;;;;;26.98;24.13;;;10.10;99.90;;;10.91;87.70;98290.41;5244850;28;20672;-57
2022/05/01 03:24:48;;;;;;;28.27;25.38;;;10.00;99.90;;;10.81;87.70;98282.16;5242861;28;20203;-57
2022/05/01 03:27:21;;;;;;;29.00;26.02;;;10.00;99.90;;;10.86;88.50;98289.25;5244320;28;20662;-56
2022/05/01 03:32:43;;;;;;;29.52;26.45;;;10.10;99.90;;;10.89;87.96;98285.19;5245279;28;20667;-55
2022/05/01 03:35:17;;;;;;;29.13;26.13;;;10.10;99.90;;;10.87;88.35;98285.88;5250064;28;20192;-57
2022/05/01 03:37:50;;;;;;;29.58;26.48;;;10.00;99.90;;;10.74;88.57;98285.13;5246699;28;20981;-58
2022/05/01 03:40:24;;;;;;;29.63;26.42;;;9.90;99.90;;;10.77;87.78;98277.63;5248470;28;20227;-54
2022/05/01 03:42:57;;;;;;;26.88;24.10;;;9.90;99.90;;;10.83;87.70;98290.81;5250139;28;20743;-53
2022/05/01 03:45:31;;;;;;;27.52;24.63;;;10.00;99.90;;;10.89;87.84;98285.19;5247452;28;20232;-55
2022/05/01 03:48:06;;;;;;;27.70;24.98;;;10.00;99.90;;;10.92;87.18;98284.50;5252613;28;20203;-56
2022/05/01 03:50:39;;;;;;;32.53;27.17;;;10.00;99.90;;;10.88;88.85;98290.22;5248494;28;20367;-57
2022/05/01 03:53:12;;;;;;;29.42;26.48;;;10.00;99.90;;;10.87;88.30;98285.88;5246661;28;20224;-56
2022/05/01 03:55:47;;;;;;;28.55;25.65;;;10.00;99.90;;;10.86;87.46;98294.34;5247935;28;20252;-57
2022/05/01 03:58:21;;;;;;;27.73;24.88;;;10.00;99.90;;;10.79;88.94;98298.22;5243972;28;20298;-57
2022/05/01 04:00:54;;;;;;;28.92;25.88;;;10.00;99.90;;;10.80;88.98;98295.72;5243500;28;20242;-54
2022/05/01 04:03:28;;;;;;;30.20;27.02;;;10.00;99.90;;;10.80;89.12;98285.50;5246775;28;20224;-57
2022/05/01 04:06:01;;;;;;;28.50;25.27;;;10.00;99.90;;;10.82;89.23;98285.63;5245982;28;20306;-55
2022/05/01 04:08:35;;;;;;;30.05;26.77;;;10.00;99.90;;;10.82;88.83;98288.16;5247173;28;20704;-57
2022/05/01 04:11:09;;;;;;;27.63;24.92;;;10.00;99.90;;;10.91;88.07;98287.88;5250714;28;20196;-56
2022/05/01 04:13:43;;;;;;;25.85;23.20;;;10.00;99.90;;;10.94;87.73;98288.94;5243764;28;20234;-56
2022/05/01 04:16:16;;;;;;;26.45;23.90;;;10.00;99.90;;;10.94;88.08;98294.03;5244005;28;20240;-56
2022/05/01 04:18:49;;;;;;;25.70;23.00;;;10.00;99.90;;;10.89;88.79;98287.75;5246267;28;20204;-57
2022/05/01 04:21:24;;;;;;;23.67;21.27;;;10.00;99.90;;;10.92;89.12;98289.63;5247662;28;20299;-57
2022/05/01 04:23:57;;;;;;;26.10;23.23;;;10.00;99.90;;;10.95;88.41;98290.69;5243775;28;20303;-57
2022/05/01 04:26:31;;;;;;;26.48;23.17;;;10.00;99.90;;;10.97;89.06;98293.34;5246584;28;20252;-58
2022/05/01 04:31:55;;;;;;;26.73;23.95;;;10.00;99.90;;;10.97;88.84;98290.81;5243262;28;20637;-55
2022/05/01 04:34:28;;;;;;;27.92;25.13;;;10.00;99.90;;;10.98;88.25;98290.88;5245166;28;20200;-55
2022/05/01 04:37:02;;;;;;;29.20;25.50;;;10.10;99.90;;;11.03;88.00;98296.28;5246069;28;20785;-57
2022/05/01 04:39:35;;;;;;;28.67;25.40;;;10.10;99.90;;;11.01;88.82;98296.19;5245644;28;20287;-57
2022/05/01 04:42:09;;;;;;;29.63;26.48;;;10.10;99.90;;;11.03;88.01;98293.72;5247444;28;20788;-57
2022/05/01 04:44:43;;;;;;;30.25;26.05;;;10.10;99.90;;;11.02;88.89;98297.97;5245560;28;20192;-57
2022/05/01 04:47:16;;;;;;;27.48;24.70;;;10.10;99.90;;;11.07;87.89;98295.69;5244276;28;20307;-54
2022/05/01 04:49:50;;;;;;;29.35;26.20;;;10.20;99.90;;;11.11;87.57;98302.78;5245373;28;20630;-53
2022/05/01 04:52:23;;;;;;;29.27;26.20;;;10.10;99.90;;;11.06;88.64;98304.16;5246403;28;20195;-53
2022/05/01 04:54:56;;;;;;;30.38;26.58;;;10.10;99.90;;;11.07;88.41;98300.78;5243465;28;20205;-57
2022/05/01 04:57:31;;;;;;;30.88;27.55;;;10.10;99.90;;;11.11;88.24;98307.88;5245579;28;20221;-51
2022/05/01 05:00:06;;;;;;;28.52;25.50;;;10.10;99.90;;;11.13;88.27;98308.88;5242184;28;20204;-54
2022/05/01 05:02:41;;;;;;;30.00;26.13;;;10.20;99.90;;;11.10;88.11;98306.09;5242938;28;20211;-55
2022/05/01 05:05:15;;;;;;;30.23;26.85;;;10.20;99.90;;;11.11;88.35;98313.00;5246275;28;20200;-52
2022/05/01 05:07:49;;;;;;;28.15;24.92;;;10.20;99.90;;;11.12;88.23;98309.66;5244207;28;20289;-53
2022/05/01 05:10:22;;;;;;;32.00;27.40;;;10.20;99.90;;;11.16;87.04;98316.75;5250107;28;20883;-52
2022/05/01 05:12:58;;;;;;;28.83;25.67;;;10.20;99.90;;;11.18;88.24;98310.03;5245388;28;20681;-51
2022/05/01 05:15:31;;;;;;;31.65;27.83;;;10.20;99.90;;;11.17;87.78;98318.50;5245328;28;20203;-52
2022/05/01 05:18:05;;;;;;;30.65;27.15;;;10.20;99.90;;;11.22;87.65;98318.78;5245228;28;20225;-54
2022/05/01 05:20:38;;;;;;;31.65;27.75;;;10.20;99.90;;;11.27;86.62;98315.72;5231757;28;20654;-56
2022/05/01 05:23:11;;;;;;;34.53;29.88;;;10.20;99.90;;;11.28;87.29;98324.28;5243228;28;20274;-52
2022/05/01 05:25:44;;;;;;;35.65;29.63;;;10.30;99.90;;;11.31;87.24;98321.03;5246497;28;20708;-51
2022/05/01 05:28:19;;;;;;;35.33;30.92;;;10.30;99.90;;;11.25;86.71;98314.75;5243990;28;20932;-52
2022/05/01 05:30:52;;;;;;;35.40;29.30;;;10.30;99.90;;;11.27;86.55;98325.97;5241528;28;20205;-52
2022/05/01 05:33:25;;;;;;;36.90;31.63;;;10.30;99.90;;;11.27;85.89;98325.97;5244589;28;20316;-52
2022/05/01 05:35:59;;;;;;;35.05;30.38;;;10.30;99.90;;;11.31;86.34;98321.03;5242699;28;20274;-53
2022/05/01 05:38:33;;;;;;;39.13;32.58;;;10.30;99.90;;;11.32;86.36;98323.66;5242844;28;20245;-52
2022/05/01 05:41:06;;;;;;;36.75;31.80;;;10.30;99.90;;;11.38;84.81;98329.16;5241285;28;20290;-57
2022/05/01 05:43:40;;;;;;;39.28;30.48;;;10.30;99.90;;;11.39;84.94;98325.81;5246757;28;20220;-53
2022/05/01 05:46:14;;;;;;;39.35;32.08;;;10.30;99.90;;;11.33;85.88;98325.47;5244764;28;20336;-55
2022/05/01 05:48:47;;;;;;;38.10;32.30;;;10.40;99.90;;;11.32;86.08;98331.34;5239275;28;20649;-54
2022/05/01 05:51:20;;;;;;;37.28;32.20;;;10.40;99.90;;;11.37;85.66;98334.19;5248263;28;20228;-53
2022/05/01 05:53:54;;;;;;;42.10;32.75;;;10.40;99.90;;;11.36;86.36;98324.72;5237094;28;20287;-55
2022/05/01 05:56:27;;;;;;;37.15;32.22;;;10.40;99.90;;;11.34;85.72;98329.78;5244129;28;20259;-53
2022/05/01 05:59:01;;;;;;;38.50;31.08;;;10.40;99.90;;;11.34;85.82;98334.00;5240140;28;20229;-57
2022/05/01 06:01:34;;;;;;;39.60;32.75;;;10.40;99.90;;;11.41;85.43;98342.13;5238321;28;20238;-54
2022/05/01 06:04:08;;;;;;;40.10;32.22;;;10.40;99.90;;;11.43;85.65;98342.25;5237979;28;20219;-57
2022/05/01 06:06:41;;;;;;;36.88;32.80;;;10.40;99.90;;;11.41;85.99;98338.69;5233977;28;20248;-55
2022/05/01 06:09:14;;;;;;;38.63;32.53;;;10.40;99.90;;;11.41;85.85;98336.16;5235357;28;20220;-57
2022/05/01 06:11:47;;;;;;;40.75;33.28;;;10.50;99.90;;;11.44;85.82;98338.88;5241714;28;20239;-55
2022/05/01 06:22:44;;;;;;;39.35;30.48;;;10.40;99.90;;;11.42;85.72;98350.72;5240817;28;20357;-53
2022/05/01 06:25:17;;;;;;;39.10;32.42;;;10.40;99.90;;;11.37;86.08;98344.44;5234525;28;20235;-53
2022/05/01 06:27:50;;;;;;;39.95;32.65;;;10.40;99.90;;;11.36;87.04;98337.53;5237850;28;20304;-54
2022/05/01 06:30:23;;;;;;;39.33;31.40;;;10.40;99.90;;;11.32;87.05;98343.25;5240725;28;20224;-58
2022/05/01 06:32:57;;;;;;;41.67;34.13;;;10.30;99.90;;;11.31;87.95;98341.50;5239871;28;20196;-57
2022/05/01 06:35:31;;;;;;;39.17;32.55;;;10.30;99.90;;;11.30;87.96;98349.94;5240530;28;20262;-56
2022/05/01 06:38:06;;;;;;;43.72;34.83;;;10.40;99.90;;;11.33;88.08;98351.06;5240074;28;20249;-57
2022/05/01 06:40:39;;;;;;;42.00;34.58;;;10.30;99.90;;;11.30;89.18;98350.81;5231508;28;20303;-56
2022/05/01 06:43:13;;;;;;;42.60;33.97;;;10.40;99.90;;;11.28;88.25;98343.06;5240520;28;20213;-56
2022/05/01 06:45:48;;;;;;;42.95;33.97;;;10.30;99.90;;;11.22;89.76;98352.94;5240595;28;20291;-57
2022/05/01 06:48:24;;;;;;;42.97;34.00;;;10.40;99.90;;;11.32;89.65;98358.63;5234917;28;20197;-56
2022/05/01 06:50:57;;;;;;;41.75;33.67;;;10.40;99.90;;;11.37;89.47;98355.56;5242035;28;20311;-57
2022/05/01 06:53:31;;;;;;;43.08;33.55;;;10.50;99.90;;;11.33;90.00;98357.81;5237980;28;20273;-53
2022/05/01 06:56:05;;;;;;;41.08;33.00;;;10.50;99.90;;;11.43;89.44;98358.50;5237627;28;20263;-57
2022/05/01 06:58:39;;;;;;;41.17;35.10;;;10.50;99.90;;;11.54;88.43;98348.91;5240235;28;20207;-58
2022/05/01 07:01:12;;;;;;;39.03;34.70;;;10.50;99.90;;;11.51;88.68;98351.28;5247413;28;20212;-57
2022/05/01 07:03:46;;;;;;;45.15;35.35;;;10.50;99.90;;;11.49;89.06;98348.63;5244334;28;20220;-57
2022/05/01 07:06:19;;;;;;;41.58;33.20;;;10.50;99.90;;;11.56;88.43;98337.09;5246148;28;20281;-57
2022/05/01 07:08:54;;;;;;;42.75;33.72;;;10.60;99.90;;;11.72;88.36;98341.47;5249469;28;20669;-55
2022/05/01 07:11:27;;;;;;;39.28;32.95;;;10.70;99.90;;;11.88;87.03;98348.44;5244387;28;20226;-57
2022/05/01 07:14:00;;;;;;;42.00;32.97;;;10.90;99.90;;;11.99;86.40;98347.41;5245901;28;20327;-57
2022/05/01 07:16:33;;;;;;;37.17;32.42;;;11.00;99.90;;;12.13;85.51;98349.09;5242653;28;20270;-57
2022/05/01 07:19:06;;;;;;;43.53;33.40;;;11.10;99.90;;;12.18;83.38;98349.34;5241126;28;20225;-56
2022/05/01 07:21:39;;;;;;;36.70;31.05;;;11.20;99.90;;;12.31;83.70;98353.53;5241019;28;20239;-57
2022/05/01 07:24:14;;;;;;;36.80;30.40;;;11.30;99.90;;;12.38;82.81;98342.81;5247403;28;20324;-57
2022/05/01 07:26:47;;;;;;;37.28;31.42;;;11.30;99.90;;;12.38;81.75;98347.94;5244028;28;20222;-55
2022/05/01 07:29:20;;;;;;;34.80;29.40;;;11.30;99.90;;;12.44;80.57;98344.84;5245491;28;20192;-54
2022/05/01 07:31:53;;;;;;;33.95;28.63;;;11.30;99.90;;;12.39;80.89;98342.91;5241267;28;20290;-56
2022/05/01 07:34:26;;;;;;;31.73;27.90;;;11.30;99.90;;;12.62;80.73;98344.22;5247995;28;20228;-54
2022/05/01 07:36:59;;;;;;;33.78;28.40;;;11.50;99.90;;;12.61;79.70;98344.13;5239386;28;20315;-52
2022/05/01 07:39:34;;;;;;;35.00;28.95;;;11.60;99.90;;;12.82;79.53;98345.34;5248113;28;20724;-54
2022/05/01 07:42:08;;;;;;;32.10;27.63;;;11.70;99.90;;;13.00;79.12;98342.03;5247263;28;20234;-58
2022/05/01 07:44:41;;;;;;;30.75;27.42;;;11.90;99.90;;;13.34;78.04;98334.53;5243602;28;20303;-54
2022/05/01 07:47:14;;;;;;;30.42;27.00;;;12.20;99.90;;;13.53;76.82;98344.06;5248098;28;20220;-53
2022/05/01 07:49:47;;;;;;;32.40;26.67;;;12.30;99.90;;;13.69;75.44;98345.78;5241646;28;20228;-56
2022/05/01 07:52:21;;;;;;;29.05;25.80;;;12.50;99.90;;;13.80;73.76;98347.22;5245384;28;20283;-57
2022/05/01 07:54:55;;;;;;;27.33;24.45;;;12.50;99.90;;;13.91;73.94;98340.97;5243966;28;20224;-55
2022/05/01 07:57:29;;;;;;;31.75;26.27;;;12.60;99.90;;;13.89;73.32;98336.53;5246077;28;20315;-53
2022/05/01 08:00:02;;;;;;;27.27;24.17;;;12.80;99.90;;;13.96;73.01;98342.09;5246389;28;20223;-56
2022/05/01 08:04:27;;;;;;;28.98;25.30;;;12.80;99.90;;;14.01;72.64;98344.88;5239603;28;20189;-54
2022/05/01 08:05:29;;;;;;;28.42;24.20;;;12.70;99.90;;;13.95;72.88;98340.31;5240507;28;22221;-54
2022/05/01 08:08:02;;;;;;;25.45;22.55;;;12.80;99.90;;;14.10;71.81;98339.31;5249461;28;20241;-58
2022/05/01 08:10:37;;;;;;;25.70;21.33;;;13.00;99.90;;;14.16;70.34;98347.34;5242004;28;20755;-56
2022/05/01 08:13:10;;;;;;;25.60;21.73;;;13.10;99.90;;;14.32;70.15;98344.75;5237359;28;20284;-56
2022/05/01 08:15:43;;;;;;;23.45;20.85;;;13.20;99.90;;;14.36;69.57;98335.50;5239356;28;20632;-56
2022/05/01 08:21:08;;;;;;;22.17;19.83;;;13.40;99.90;;;14.67;67.49;98337.03;5237954;28;20292;-53
2022/05/01 08:23:42;;;;;;;20.73;18.38;;;13.50;99.90;;;14.81;66.42;98334.31;5240607;28;20231;-56
2022/05/01 08:26:18;;;;;;;18.65;16.65;;;13.60;99.90;;;15.03;66.03;98337.94;5243223;28;20316;-56
2022/05/01 08:28:54;;;;;;;21.60;17.92;;;13.70;99.90;;;15.02;65.15;98336.16;5241678;28;20296;-56
2022/05/01 08:31:27;;;;;;;20.33;18.05;;;13.80;99.90;;;15.13;63.61;98340.09;5241257;28;20216;-57
2022/05/01 08:34:00;;;;;;;20.98;18.30;;;13.80;99.90;;;15.37;62.96;98334.34;5243456;28;20657;-54
2022/05/01 08:36:33;;;;;;;18.25;16.17;;;13.90;99.90;;;15.38;61.96;98330.97;5242692;28;20259;-56
2022/05/01 08:40:12;;;;;;;19.35;17.27;;;14.00;99.90;;;15.12;62.41;98338.34;5232828;28;20641;-53
2022/05/01 08:42:48;;;;;;;19.42;17.42;;;14.00;99.90;;;15.38;62.52;98330.97;5236291;28;20291;-53
2022/05/01 09:23:44;;;;;;;14.00;12.55;;;14.60;99.10;;;15.70;53.42;98315.25;5265765;28;20176;-56
2022/05/01 09:26:42;;;;;;;12.48;11.27;;;14.60;98.30;;;15.79;53.66;98313.91;5237339;28;20246;-53
2022/05/01 09:29:22;;;;;;;13.88;12.68;;;14.60;98.40;;;15.82;54.48;98319.19;5239411;28;20275;-56
2022/05/01 09:31:55;;;;;;;16.13;14.63;;;14.60;99.00;;;15.79;54.06;98316.50;5240427;28;20254;-56
2022/05/01 09:34:31;;;;;;;14.68;13.18;;;14.60;98.50;;;15.65;54.56;98314.19;5244119;28;20212;-55
2022/05/01 09:37:19;;;;;;;14.77;13.35;;;14.50;99.10;;;15.76;54.37;98318.09;5239746;28;20279;-52
2022/05/01 09:39:54;;;;;;;14.23;12.82;;;14.60;99.20;;;15.85;53.23;98319.34;5237770;28;20635;-57
2022/05/01 09:42:29;;;;;;;14.52;13.15;;;14.60;98.10;;;15.82;53.76;98316.63;5240516;28;20203;-56
2022/05/01 09:45:08;;;;;;;15.02;13.48;;;14.70;98.40;;;15.97;53.94;98314.72;5240679;28;20219;-55
2022/05/01 09:47:43;;;;;;;13.27;12.07;;;14.80;98.60;;;16.06;54.49;98317.69;5241626;28;20645;-54
2022/05/01 09:50:16;;;;;;;14.23;12.93;;;15.00;98.60;;;16.16;53.09;98317.25;5245785;28;20278;-55
2022/05/01 09:53:01;;;;;;;13.55;12.15;;;15.10;97.80;;;16.27;52.78;98322.00;5240529;28;20219;-55
2022/05/01 09:55:37;;;;;;;13.13;11.85;;;15.10;97.80;;;16.62;52.13;98302.78;5242978;28;20196;-54
2022/05/01 09:58:12;;;;;;;12.13;11.13;;;15.40;97.40;;;16.87;51.93;98309.88;5239916;28;20204;-52
2022/05/01 10:00:47;;;;;;;11.95;10.75;;;15.70;97.20;;;17.07;51.38;98303.78;5245579;28;20204;-53
2022/05/01 10:03:27;;;;;;;12.27;11.07;;;15.90;96.70;;;17.37;51.10;98305.78;5241729;28;20199;-54
2022/05/01 10:06:01;;;;;;;11.95;10.82;;;16.20;96.70;;;17.64;49.96;98302.44;5239374;28;20638;-52
2022/05/01 10:08:38;;;;;;;13.05;11.82;;;16.60;95.80;;;17.78;50.17;98298.69;5240573;28;20326;-56
2022/05/01 10:11:16;;;;;;;12.75;11.50;;;16.80;96.10;;;17.64;50.57;98297.28;5240842;28;20232;-54
2022/05/01 10:13:49;;;;;;;12.98;11.88;;;16.80;96.00;;;17.75;50.35;98294.25;5235743;28;20209;-55
2022/05/01 10:16:24;;;;;;;12.52;11.38;;;16.90;95.50;;;17.83;49.29;98291.97;5247148;28;20255;-52
2022/05/01 10:19:03;;;;;;;13.27;11.98;;;16.90;95.30;;;17.70;49.36;98292.31;5244976;28;20204;-55
2022/05/01 10:21:56;;;;;;;11.57;10.38;;;16.60;95.20;;;17.58;49.94;98285.00;5246880;28;20684;-57
2022/05/01 10:24:29;;;;;;;11.80;10.60;;;16.50;95.50;;;17.66;48.84;98280.13;5240723;28;20303;-57
2022/05/01 10:27:17;;;;;;;13.10;11.80;;;16.30;95.50;;;17.39;49.32;98283.44;5239969;28;20248;-53
2022/05/01 10:33:37;;;;;;;12.07;11.02;;;16.10;95.60;;;17.32;50.76;98278.88;5243215;28;20656;-53
2022/05/01 10:36:43;;;;;;;12.90;11.60;;;16.20;95.80;;;17.30;50.03;98275.34;5244127;28;20319;-52
2022/05/01 10:39:20;;;;;;;11.73;10.50;;;16.10;95.40;;;17.38;49.57;98276.50;5243790;28;20688;-56
2022/05/01 10:41:53;;;;;;;12.40;11.30;;;16.10;95.10;;;17.44;49.46;98268.09;5240684;28;20284;-55
2022/05/01 10:44:30;;;;;;;13.20;12.00;;;16.10;95.30;;;17.65;48.15;98268.88;5252166;28;20298;-55
2022/05/01 10:47:12;;;;;;;12.35;11.13;;;16.60;94.40;;;17.75;47.95;98268.38;5251683;28;20293;-57
2022/05/01 10:49:47;;;;;;;11.85;10.85;;;16.70;93.80;;;17.76;47.74;98269.25;5240491;28;20197;-56
2022/05/01 10:52:23;;;;;;;12.60;11.40;;;16.40;94.30;;;17.40;47.09;98261.97;5250321;28;20199;-57
2022/05/01 10:55:01;;;;;;;12.55;11.48;;;16.30;93.50;;;17.51;48.77;98258.06;5245291;28;20235;-57
2022/05/01 10:57:34;;;;;;;12.05;10.88;;;16.40;94.20;;;17.19;49.57;98256.84;5240836;28;20228;-57
2022/05/01 11:00:11;;;;;;;10.68;9.77;;;16.30;94.90;;;17.46;48.84;98257.00;5226590;28;20715;-57
2022/05/01 11:02:48;;;;;;;10.95;10.00;;;16.30;94.60;;;17.54;49.00;98247.81;5245963;28;20197;-54
2022/05/01 11:05:43;;;;;;;11.57;10.50;;;16.40;94.60;;;17.20;50.31;98244.84;5243893;28;20215;-56
2022/05/01 11:08:19;;;;;;;11.32;10.23;;;16.20;95.50;;;17.37;50.14;98241.19;5241993;28;20204;-57
2022/05/01 11:10:55;;;;;;;11.85;10.68;;;16.30;95.60;;;17.46;50.61;98246.66;5240259;28;20639;-54
2022/05/01 11:13:38;;;;;;;11.60;10.45;;;16.40;95.20;;;17.48;49.49;98242.44;5241291;28;20189;-56
2022/05/01 11:16:13;;;;;;;11.00;10.10;;;16.30;94.50;;;17.43;49.74;98236.22;5246986;28;20734;-56
2022/05/01 11:18:55;;;;;;;11.10;10.15;;;16.30;95.30;;;17.41;50.58;98243.03;5248959;28;20214;-57
2022/05/01 11:21:35;;;;;;;10.95;9.95;;;16.30;95.80;;;17.34;49.63;98241.94;5241047;28;20239;-55
2022/05/01 11:24:13;;;;;;;12.05;10.95;;;16.30;95.20;;;17.18;49.74;98241.31;5236856;28;20215;-56
2022/05/01 11:27:21;;;;;;;10.95;9.95;;;16.10;95.10;;;17.26;49.66;98240.78;5228449;28;20315;-56
2022/05/01 11:30:22;;;;;;;11.73;10.63;;;16.20;94.70;;;17.36;49.56;98243.69;5238002;28;20220;-57
2022/05/01 11:33:03;;;;;;;10.52;9.63;;;16.20;95.00;;;17.54;48.25;98237.50;5233341;28;20208;-56
2022/05/01 11:36:04;;;;;;;10.27;9.38;;;16.30;94.20;;;17.34;48.63;98239.34;5231930;28;20228;-56
2022/05/01 11:38:53;;;;;;;9.10;8.32;;;16.20;94.50;;;17.29;49.91;98240.00;5243680;28;20635;-55
2022/05/01 11:41:41;;;;;;;10.52;9.63;;;16.10;95.10;;;17.08;51.70;98235.81;5241421;28;20603;-57
2022/05/01 11:44:23;;;;;;;9.55;8.75;;;16.00;96.10;;;17.06;51.36;98240.03;5242024;28;20208;-57
2022/05/01 11:46:58;;;;;;;12.05;10.95;;;16.00;95.80;;;16.81;51.68;98238.22;5243593;28;20232;-56
2022/05/01 11:49:39;;;;;;;10.38;9.38;;;15.80;95.90;;;16.66;51.48;98229.84;5245505;28;20684;-57